sensor_id;sensor_type;location;lat;lon;timestamp;temperature;humidity
15184;DHT22;7693;49.266;7.104;2023-02-24T06:04:03;7.60;99.90
15184;DHT22;7693;49.266;7.104;2023-02-24T06:09:00;7.60;99.90
15184;DHT22;7693;49.266;7.104;2023-02-24T06:11:31;7.60;99.90
15184;DHT22;7693;49.266;7.104;2023-02-24T06:13:57;7.70;99.90
15184;DHT22;7693;49.266;7.104;2023-02-24T06:16:23;7.70;99.90
15184;DHT22;7693;49.266;7.104;2023-02-24T06:18:51;7.70;99.90
15184;DHT22;7693;49.266;7.104;2023-02-24T06:21:17;7.70;99.90
15184;DHT22;7693;49.266;7.104;2023-02-24T06:23:43;7.80;99.90
15184;DHT22;7693;49.266;7.104;2023-02-24T06:26:10;7.80;99.90
15184;DHT22;7693;49.266;7.104;2023-02-24T06:28:44;7.80;99.90
15184;DHT22;7693;49.266;7.104;2023-02-24T06:31:11;7.80;99.90
15184;DHT22;7693;49.266;7.104;2023-02-24T06:33:38;7.80;99.90
15184;DHT22;7693;49.266;7.104;2023-02-24T06:36:05;7.90;99.90
15184;DHT22;7693;49.266;7.104;2023-02-24T06:38:32;7.90;99.90
15184;DHT22;7693;49.266;7.104;2023-02-24T06:40:59;7.90;99.90
15184;DHT22;7693;49.266;7.104;2023-02-24T06:43:29;7.80;99.90
15184;DHT22;7693;49.266;7.104;2023-02-24T06:45:54;7.80;99.90
15184;DHT22;7693;49.266;7.104;2023-02-24T06:48:20;7.80;99.90
15184;DHT22;7693;49.266;7.104;2023-02-24T06:50:47;7.80;99.90
15184;DHT22;7693;49.266;7.104;2023-02-24T06:53:14;7.80;99.90
15184;DHT22;7693;49.266;7.104;2023-02-24T06:55:42;7.80;99.90
15184;DHT22;7693;49.266;7.104;2023-02-24T06:58:14;7.80;99.90
15184;DHT22;7693;49.266;7.104;2023-02-24T07:00:41;7.80;99.90
15184;DHT22;7693;49.266;7.104;2023-02-24T07:03:15;7.80;99.90
15184;DHT22;7693;49.266;7.104;2023-02-24T07:05:49;7.80;99.90
15184;DHT22;7693;49.266;7.104;2023-02-24T07:08:23;7.80;99.90
15184;DHT22;7693;49.266;7.104;2023-02-24T07:10:56;7.90;99.90
15184;DHT22;7693;49.266;7.104;2023-02-24T07:13:26;7.90;99.90
15184;DHT22;7693;49.266;7.104;2023-02-24T07:15:55;7.90;99.90
15184;DHT22;7693;49.266;7.104;2023-02-24T07:18:21;7.90;99.90
15184;DHT22;7693;49.266;7.104;2023-02-24T07:20:47;7.90;99.90
15184;DHT22;7693;49.266;7.104;2023-02-24T07:23:14;7.90;99.90
15184;DHT22;7693;49.266;7.104;2023-02-24T07:25:41;7.90;99.90
15184;DHT22;7693;49.266;7.104;2023-02-24T07:28:09;7.90;99.90
15184;DHT22;7693;49.266;7.104;2023-02-24T07:30:37;8.00;99.90
15184;DHT22;7693;49.266;7.104;2023-02-24T07:33:03;8.00;99.90
15184;DHT22;7693;49.266;7.104;2023-02-24T07:35:29;8.10;99.90
15184;DHT22;7693;49.266;7.104;2023-02-24T07:37:55;8.10;99.90
15184;DHT22;7693;49.266;7.104;2023-02-24T07:40:27;8.20;99.90
15184;DHT22;7693;49.266;7.104;2023-02-24T07:42:53;8.20;99.90
15184;DHT22;7693;49.266;7.104;2023-02-24T07:45:21;8.20;99.90
15184;DHT22;7693;49.266;7.104;2023-02-24T07:47:47;8.20;99.90
15184;DHT22;7693;49.266;7.104;2023-02-24T07:50:13;8.20;99.90
15184;DHT22;7693;49.266;7.104;2023-02-24T07:52:44;8.20;99.90
15184;DHT22;7693;49.266;7.104;2023-02-24T07:55:10;8.30;99.90
15184;DHT22;7693;49.266;7.104;2023-02-24T07:57:36;8.30;99.90
15184;DHT22;7693;49.266;7.104;2023-02-24T08:00:06;8.30;99.90
15184;DHT22;7693;49.266;7.104;2023-02-24T08:02:48;8.30;99.90
15184;DHT22;7693;49.266;7.104;2023-02-24T08:05:17;8.30;99.90
15184;DHT22;7693;49.266;7.104;2023-02-24T08:07:44;8.40;99.90
15184;DHT22;7693;49.266;7.104;2023-02-24T08:10:17;8.40;99.90
15184;DHT22;7693;49.266;7.104;2023-02-24T08:12:54;8.40;99.90
15184;DHT22;7693;49.266;7.104;2023-02-24T08:15:25;8.40;99.90
15184;DHT22;7693;49.266;7.104;2023-02-24T08:17:58;8.40;99.90
15184;DHT22;7693;49.266;7.104;2023-02-24T08:20:25;8.50;99.90
15184;DHT22;7693;49.266;7.104;2023-02-24T08:22:52;8.50;99.90
15184;DHT22;7693;49.266;7.104;2023-02-24T08:25:27;8.50;99.90
15184;DHT22;7693;49.266;7.104;2023-02-24T08:28:05;8.50;99.90
15184;DHT22;7693;49.266;7.104;2023-02-24T08:30:32;8.60;99.90
15184;DHT22;7693;49.266;7.104;2023-02-24T08:33:05;8.60;99.90
15184;DHT22;7693;49.266;7.104;2023-02-24T08:35:37;8.60;99.90
15184;DHT22;7693;49.266;7.104;2023-02-24T08:38:10;8.60;99.90
15184;DHT22;7693;49.266;7.104;2023-02-24T08:40:41;8.70;99.90
15184;DHT22;7693;49.266;7.104;2023-02-24T08:43:21;8.70;99.90
15184;DHT22;7693;49.266;7.104;2023-02-24T08:46:03;8.80;99.90
15184;DHT22;7693;49.266;7.104;2023-02-24T08:48:35;8.80;99.90
15184;DHT22;7693;49.266;7.104;2023-02-24T08:53:37;8.90;99.90
15184;DHT22;7693;49.266;7.104;2023-02-24T08:56:08;9.00;99.90
15184;DHT22;7693;49.266;7.104;2023-02-24T08:58:37;9.10;99.90
15184;DHT22;7693;49.266;7.104;2023-02-24T09:01:10;9.10;99.90
15184;DHT22;7693;49.266;7.104;2023-02-24T09:03:44;9.10;99.90
15184;DHT22;7693;49.266;7.104;2023-02-24T09:06:11;9.10;99.90
15184;DHT22;7693;49.266;7.104;2023-02-24T09:08:42;9.10;99.90
15184;DHT22;7693;49.266;7.104;2023-02-24T09:11:13;9.10;99.90
15184;DHT22;7693;49.266;7.104;2023-02-24T09:13:44;9.20;99.90
15184;DHT22;7693;49.266;7.104;2023-02-24T09:16:20;9.10;99.90
15184;DHT22;7693;49.266;7.104;2023-02-24T09:18:48;9.20;99.90
15184;DHT22;7693;49.266;7.104;2023-02-24T09:21:35;9.30;99.90
15184;DHT22;7693;49.266;7.104;2023-02-24T09:24:14;9.40;99.90
15184;DHT22;7693;49.266;7.104;2023-02-24T09:26:52;9.50;99.90
15184;DHT22;7693;49.266;7.104;2023-02-24T09:29:26;9.60;99.90
15184;DHT22;7693;49.266;7.104;2023-02-24T09:32:04;9.60;99.90
15184;DHT22;7693;49.266;7.104;2023-02-24T09:34:36;9.60;99.90
15184;DHT22;7693;49.266;7.104;2023-02-24T09:37:03;9.70;99.90
15184;DHT22;7693;49.266;7.104;2023-02-24T09:39:34;9.80;99.90
15184;DHT22;7693;49.266;7.104;2023-02-24T09:42:25;9.80;99.90
15184;DHT22;7693;49.266;7.104;2023-02-24T09:44:54;9.80;99.90
15184;DHT22;7693;49.266;7.104;2023-02-24T09:52:57;9.90;99.90
15184;DHT22;7693;49.266;7.104;2023-02-24T09:55:43;9.90;99.90
15184;DHT22;7693;49.266;7.104;2023-02-24T10:01:52;9.90;99.90
15184;DHT22;7693;49.266;7.104;2023-02-24T10:07:12;10.00;99.90
15184;DHT22;7693;49.266;7.104;2023-02-24T10:09:43;10.00;99.90
15184;DHT22;7693;49.266;7.104;2023-02-24T10:14:53;10.00;99.90
15184;DHT22;7693;49.266;7.104;2023-02-24T10:17:41;10.00;99.90
15184;DHT22;7693;49.266;7.104;2023-02-24T10:20:17;10.10;99.90
15184;DHT22;7693;49.266;7.104;2023-02-24T10:23:04;10.20;99.90
15184;DHT22;7693;49.266;7.104;2023-02-24T10:25:41;10.20;99.90
15184;DHT22;7693;49.266;7.104;2023-02-24T10:29:04;10.20;99.90
15184;DHT22;7693;49.266;7.104;2023-02-24T10:31:45;10.20;99.90
15184;DHT22;7693;49.266;7.104;2023-02-24T10:34:14;10.20;99.90
15184;DHT22;7693;49.266;7.104;2023-02-24T10:36:51;10.20;99.90
15184;DHT22;7693;49.266;7.104;2023-02-24T10:39:23;10.30;99.90
15184;DHT22;7693;49.266;7.104;2023-02-24T10:42:01;10.30;99.90
15184;DHT22;7693;49.266;7.104;2023-02-24T10:44:41;10.30;99.90
15184;DHT22;7693;49.266;7.104;2023-02-24T10:47:18;10.30;99.90
15184;DHT22;7693;49.266;7.104;2023-02-24T10:49:49;10.30;99.90
15184;DHT22;7693;49.266;7.104;2023-02-24T10:52:35;10.40;99.90
15184;DHT22;7693;49.266;7.104;2023-02-24T10:55:14;10.40;99.90
15184;DHT22;7693;49.266;7.104;2023-02-24T11:01:06;10.60;99.90
15184;DHT22;7693;49.266;7.104;2023-02-24T16:15:34;10.50;99.90
15184;DHT22;7693;49.266;7.104;2023-02-24T16:18:05;10.40;99.90
15184;DHT22;7693;49.266;7.104;2023-02-24T16:20:36;10.40;99.90
15184;DHT22;7693;49.266;7.104;2023-02-24T16:23:04;10.40;99.90
15184;DHT22;7693;49.266;7.104;2023-02-24T16:25:36;10.30;99.90
15184;DHT22;7693;49.266;7.104;2023-02-24T16:28:02;10.30;99.90
15184;DHT22;7693;49.266;7.104;2023-02-24T16:30:29;10.20;99.90
15184;DHT22;7693;49.266;7.104;2023-02-24T16:32:56;10.20;99.90
15184;DHT22;7693;49.266;7.104;2023-02-24T16:35:23;10.20;99.90
15184;DHT22;7693;49.266;7.104;2023-02-24T16:37:49;10.20;99.90
15184;DHT22;7693;49.266;7.104;2023-02-24T16:40:27;10.10;99.90
15184;DHT22;7693;49.266;7.104;2023-02-24T16:42:55;10.10;99.90
15184;DHT22;7693;49.266;7.104;2023-02-24T16:45:21;10.00;99.90
15184;DHT22;7693;49.266;7.104;2023-02-24T16:47:50;10.00;99.90
15184;DHT22;7693;49.266;7.104;2023-02-24T16:50:21;9.90;99.90
15184;DHT22;7693;49.266;7.104;2023-02-24T16:52:48;9.90;99.90
15184;DHT22;7693;49.266;7.104;2023-02-24T16:55:15;9.80;99.90
15184;DHT22;7693;49.266;7.104;2023-02-24T16:57:41;9.80;99.90
15184;DHT22;7693;49.266;7.104;2023-02-24T17:00:08;9.70;99.90
15184;DHT22;7693;49.266;7.104;2023-02-24T17:02:33;9.70;99.90
15184;DHT22;7693;49.266;7.104;2023-02-24T17:04:59;9.60;99.90
15184;DHT22;7693;49.266;7.104;2023-02-24T17:07:24;9.50;99.90
15184;DHT22;7693;49.266;7.104;2023-02-24T17:09:50;9.50;99.90
15184;DHT22;7693;49.266;7.104;2023-02-24T17:12:19;9.50;99.90
15184;DHT22;7693;49.266;7.104;2023-02-24T17:14:45;9.40;99.90
15184;DHT22;7693;49.266;7.104;2023-02-24T17:17:10;9.40;99.90
15184;DHT22;7693;49.266;7.104;2023-02-24T17:19:36;9.40;99.90
15184;DHT22;7693;49.266;7.104;2023-02-24T17:22:02;9.30;99.90
15184;DHT22;7693;49.266;7.104;2023-02-24T17:24:29;9.30;99.90
15184;DHT22;7693;49.266;7.104;2023-02-24T17:26:55;9.20;99.90
15184;DHT22;7693;49.266;7.104;2023-02-24T17:29:23;9.10;99.90
15184;DHT22;7693;49.266;7.104;2023-02-24T17:31:49;9.10;99.90
15184;DHT22;7693;49.266;7.104;2023-02-24T17:34:15;9.00;99.90
15184;DHT22;7693;49.266;7.104;2023-02-24T17:36:40;9.00;99.90
15184;DHT22;7693;49.266;7.104;2023-02-24T17:39:06;8.90;99.90
15184;DHT22;7693;49.266;7.104;2023-02-24T17:41:32;8.90;99.90
15184;DHT22;7693;49.266;7.104;2023-02-24T17:43:57;8.80;99.90
15184;DHT22;7693;49.266;7.104;2023-02-24T17:46:23;8.80;99.90
15184;DHT22;7693;49.266;7.104;2023-02-24T17:48:48;8.80;99.90
15184;DHT22;7693;49.266;7.104;2023-02-24T17:51:15;8.70;99.90
15184;DHT22;7693;49.266;7.104;2023-02-24T17:53:42;8.70;99.90
15184;DHT22;7693;49.266;7.104;2023-02-24T17:56:08;8.60;99.90
15184;DHT22;7693;49.266;7.104;2023-02-24T17:58:34;8.60;99.90
15184;DHT22;7693;49.266;7.104;2023-02-24T18:01:00;8.50;99.90
15184;DHT22;7693;49.266;7.104;2023-02-24T18:03:28;8.50;99.90
15184;DHT22;7693;49.266;7.104;2023-02-24T18:06:18;8.50;99.90
15184;DHT22;7693;49.266;7.104;2023-02-24T18:08:44;8.50;99.90
15184;DHT22;7693;49.266;7.104;2023-02-24T18:11:13;8.50;99.90
15184;DHT22;7693;49.266;7.104;2023-02-24T18:13:40;8.50;99.90
15184;DHT22;7693;49.266;7.104;2023-02-24T18:16:10;8.50;99.90
15184;DHT22;7693;49.266;7.104;2023-02-24T18:18:36;8.50;99.90
15184;DHT22;7693;49.266;7.104;2023-02-24T18:21:03;8.50;99.90
15184;DHT22;7693;49.266;7.104;2023-02-24T18:23:30;8.60;99.90
15184;DHT22;7693;49.266;7.104;2023-02-24T18:26:02;8.60;99.90
15184;DHT22;7693;49.266;7.104;2023-02-24T18:28:29;8.60;99.90
15184;DHT22;7693;49.266;7.104;2023-02-24T18:30:55;8.70;99.90
15184;DHT22;7693;49.266;7.104;2023-02-24T18:33:20;8.70;99.90
15184;DHT22;7693;49.266;7.104;2023-02-24T18:35:46;8.70;99.90
15184;DHT22;7693;49.266;7.104;2023-02-24T18:38:11;8.70;99.90
15184;DHT22;7693;49.266;7.104;2023-02-24T18:40:37;8.70;99.90
15184;DHT22;7693;49.266;7.104;2023-02-24T18:43:03;8.70;99.90
15184;DHT22;7693;49.266;7.104;2023-02-24T18:45:29;8.70;99.90
15184;DHT22;7693;49.266;7.104;2023-02-24T18:47:55;8.70;99.90
15184;DHT22;7693;49.266;7.104;2023-02-24T18:50:21;8.70;99.90
15184;DHT22;7693;49.266;7.104;2023-02-24T18:52:49;8.70;99.90
15184;DHT22;7693;49.266;7.104;2023-02-24T18:55:15;8.70;99.90
15184;DHT22;7693;49.266;7.104;2023-02-24T18:57:41;8.70;99.90
15184;DHT22;7693;49.266;7.104;2023-02-24T19:00:07;8.70;99.90
15184;DHT22;7693;49.266;7.104;2023-02-24T19:02:33;8.70;99.90
15184;DHT22;7693;49.266;7.104;2023-02-24T19:04:58;8.60;99.90
15184;DHT22;7693;49.266;7.104;2023-02-24T19:07:24;8.60;99.90
15184;DHT22;7693;49.266;7.104;2023-02-24T19:09:50;8.60;99.90
15184;DHT22;7693;49.266;7.104;2023-02-24T19:12:15;8.60;99.90
15184;DHT22;7693;49.266;7.104;2023-02-24T19:14:42;8.60;99.90
15184;DHT22;7693;49.266;7.104;2023-02-24T19:17:08;8.50;99.90
15184;DHT22;7693;49.266;7.104;2023-02-24T19:19:33;8.50;99.90
15184;DHT22;7693;49.266;7.104;2023-02-24T19:21:59;8.50;99.90
15184;DHT22;7693;49.266;7.104;2023-02-24T19:24:24;8.50;99.90
15184;DHT22;7693;49.266;7.104;2023-02-24T19:26:52;8.50;99.90
15184;DHT22;7693;49.266;7.104;2023-02-24T19:29:18;8.50;99.90
15184;DHT22;7693;49.266;7.104;2023-02-24T19:31:45;8.50;99.90
15184;DHT22;7693;49.266;7.104;2023-02-24T19:34:12;8.40;99.90
15184;DHT22;7693;49.266;7.104;2023-02-24T19:36:38;8.40;99.90
15184;DHT22;7693;49.266;7.104;2023-02-24T19:39:08;8.40;99.90
15184;DHT22;7693;49.266;7.104;2023-02-24T19:41:33;8.40;99.90
15184;DHT22;7693;49.266;7.104;2023-02-24T19:44:00;8.40;99.90
15184;DHT22;7693;49.266;7.104;2023-02-24T19:46:26;8.40;99.90
15184;DHT22;7693;49.266;7.104;2023-02-24T19:48:55;8.30;99.90
15184;DHT22;7693;49.266;7.104;2023-02-24T19:51:22;8.30;99.90
15184;DHT22;7693;49.266;7.104;2023-02-24T19:53:51;8.30;99.90
15184;DHT22;7693;49.266;7.104;2023-02-24T19:56:24;8.30;99.90
15184;DHT22;7693;49.266;7.104;2023-02-24T19:58:55;8.20;99.90
15184;DHT22;7693;49.266;7.104;2023-02-24T20:01:21;8.20;99.90
15184;DHT22;7693;49.266;7.104;2023-02-24T20:03:47;8.20;99.90
15184;DHT22;7693;49.266;7.104;2023-02-24T20:06:37;8.10;99.90
15184;DHT22;7693;49.266;7.104;2023-02-24T20:09:08;8.10;99.90
15184;DHT22;7693;49.266;7.104;2023-02-24T20:11:38;8.10;99.90
15184;DHT22;7693;49.266;7.104;2023-02-24T20:14:05;8.10;99.90
15184;DHT22;7693;49.266;7.104;2023-02-24T20:16:31;8.10;99.90
15184;DHT22;7693;49.266;7.104;2023-02-24T20:18:59;8.00;99.90
15184;DHT22;7693;49.266;7.104;2023-02-24T20:21:26;8.00;99.90
15184;DHT22;7693;49.266;7.104;2023-02-24T20:23:52;8.00;99.90
15184;DHT22;7693;49.266;7.104;2023-02-24T20:26:18;8.00;99.90
15184;DHT22;7693;49.266;7.104;2023-02-24T20:28:45;8.00;99.90
15184;DHT22;7693;49.266;7.104;2023-02-24T20:31:14;7.90;99.90
15184;DHT22;7693;49.266;7.104;2023-02-24T20:33:41;7.90;99.90
15184;DHT22;7693;49.266;7.104;2023-02-24T20:36:16;7.90;99.90
15184;DHT22;7693;49.266;7.104;2023-02-24T20:38:42;7.80;99.90
15184;DHT22;7693;49.266;7.104;2023-02-24T20:41:08;7.80;99.90
15184;DHT22;7693;49.266;7.104;2023-02-24T20:43:33;7.70;99.90
15184;DHT22;7693;49.266;7.104;2023-02-24T20:45:59;7.70;99.90
15184;DHT22;7693;49.266;7.104;2023-02-24T20:48:33;7.70;99.90
15184;DHT22;7693;49.266;7.104;2023-02-24T20:51:03;7.70;99.90
15184;DHT22;7693;49.266;7.104;2023-02-24T20:53:28;7.70;99.90
15184;DHT22;7693;49.266;7.104;2023-02-24T20:56:03;7.60;99.90
15184;DHT22;7693;49.266;7.104;2023-02-24T20:58:30;7.60;99.90
15184;DHT22;7693;49.266;7.104;2023-02-24T21:00:55;7.60;99.90
15184;DHT22;7693;49.266;7.104;2023-02-24T21:03:21;7.60;99.90
15184;DHT22;7693;49.266;7.104;2023-02-24T21:05:48;7.60;99.90
15184;DHT22;7693;49.266;7.104;2023-02-24T21:08:14;7.60;99.90
15184;DHT22;7693;49.266;7.104;2023-02-24T21:10:44;7.60;99.90
15184;DHT22;7693;49.266;7.104;2023-02-24T21:13:10;7.60;99.90
15184;DHT22;7693;49.266;7.104;2023-02-24T21:15:36;7.50;99.90
15184;DHT22;7693;49.266;7.104;2023-02-24T21:18:02;7.50;99.90
15184;DHT22;7693;49.266;7.104;2023-02-24T21:20:27;7.60;99.90
15184;DHT22;7693;49.266;7.104;2023-02-24T21:22:53;7.60;99.90
15184;DHT22;7693;49.266;7.104;2023-02-24T21:25:18;7.50;99.90
15184;DHT22;7693;49.266;7.104;2023-02-24T21:27:44;7.40;99.90
15184;DHT22;7693;49.266;7.104;2023-02-24T21:30:12;7.50;99.90
15184;DHT22;7693;49.266;7.104;2023-02-24T21:32:38;7.40;99.90
15184;DHT22;7693;49.266;7.104;2023-02-24T21:35:03;7.40;99.90
15184;DHT22;7693;49.266;7.104;2023-02-24T21:37:29;7.40;99.90
15184;DHT22;7693;49.266;7.104;2023-02-24T21:39:55;7.40;99.90
15184;DHT22;7693;49.266;7.104;2023-02-24T21:42:20;7.30;99.90
15184;DHT22;7693;49.266;7.104;2023-02-24T21:44:46;7.30;99.90
15184;DHT22;7693;49.266;7.104;2023-02-24T21:47:15;7.30;99.90
15184;DHT22;7693;49.266;7.104;2023-02-24T21:49:41;7.30;99.90
15184;DHT22;7693;49.266;7.104;2023-02-24T21:52:08;7.30;99.90
15184;DHT22;7693;49.266;7.104;2023-02-24T21:54:35;7.30;99.90
15184;DHT22;7693;49.266;7.104;2023-02-24T21:57:02;7.30;99.90
15184;DHT22;7693;49.266;7.104;2023-02-24T21:59:27;7.30;99.90
15184;DHT22;7693;49.266;7.104;2023-02-24T22:01:53;7.30;99.90
15184;DHT22;7693;49.266;7.104;2023-02-24T22:04:19;7.20;99.90
15184;DHT22;7693;49.266;7.104;2023-02-24T22:06:46;7.20;99.90
15184;DHT22;7693;49.266;7.104;2023-02-24T22:09:12;7.20;99.90
15184;DHT22;7693;49.266;7.104;2023-02-24T22:11:45;7.20;99.90
15184;DHT22;7693;49.266;7.104;2023-02-24T22:14:13;7.20;99.90
15184;DHT22;7693;49.266;7.104;2023-02-24T22:16:39;7.10;99.90
15184;DHT22;7693;49.266;7.104;2023-02-24T22:19:05;7.10;99.90
15184;DHT22;7693;49.266;7.104;2023-02-24T22:21:32;7.10;99.90
15184;DHT22;7693;49.266;7.104;2023-02-24T22:23:59;7.10;99.90
15184;DHT22;7693;49.266;7.104;2023-02-24T22:26:26;7.10;99.90
15184;DHT22;7693;49.266;7.104;2023-02-24T22:28:53;7.10;99.90
15184;DHT22;7693;49.266;7.104;2023-02-24T22:31:21;7.10;99.90
15184;DHT22;7693;49.266;7.104;2023-02-24T22:33:48;7.10;99.90
15184;DHT22;7693;49.266;7.104;2023-02-24T22:36:17;7.10;99.90
15184;DHT22;7693;49.266;7.104;2023-02-24T22:38:44;7.10;99.90
15184;DHT22;7693;49.266;7.104;2023-02-24T22:41:15;7.00;99.90
15184;DHT22;7693;49.266;7.104;2023-02-24T22:43:41;7.10;99.90
15184;DHT22;7693;49.266;7.104;2023-02-24T22:46:10;7.10;99.90
15184;DHT22;7693;49.266;7.104;2023-02-24T22:48:36;7.10;99.90
15184;DHT22;7693;49.266;7.104;2023-02-24T22:51:04;7.10;99.90
15184;DHT22;7693;49.266;7.104;2023-02-24T22:53:33;7.00;99.90
15184;DHT22;7693;49.266;7.104;2023-02-24T22:55:59;7.00;99.90
15184;DHT22;7693;49.266;7.104;2023-02-24T22:58:25;7.00;99.90
15184;DHT22;7693;49.266;7.104;2023-02-24T23:00:52;7.00;99.90
15184;DHT22;7693;49.266;7.104;2023-02-24T23:03:21;7.00;99.90
15184;DHT22;7693;49.266;7.104;2023-02-24T23:06:17;7.00;99.90
